Time;durP1;ratioP1;P1;durP2;ratioP2;P2;SDS_P1;SDS_P2;PMS_P1;PMS_P2;Temp;Humidity;BMP_temperature;BMP_pressure;BME280_temperature;BME280_humidity;BME280_pressure;Samples;Min_cycle;Max_cycle;Signal;HPM_P1;HPM_P2
2022/03/22 00:01:15;;;;;;;53.45;34.63;;;7.80;99.90;;;;;;5078483;28;20036;-77
2022/03/22 00:03:46;;;;;;;55.28;35.25;;;7.70;99.90;;;;;;5060575;28;20083;-78
2022/03/22 00:06:12;;;;;;;46.55;32.10;;;7.70;99.90;;;;;;5078560;28;20036;-78
2022/03/22 00:08:37;;;;;;;48.65;32.83;;;7.70;99.90;;;;;;5060871;28;20055;-78
2022/03/22 00:11:03;;;;;;;46.08;32.25;;;7.70;99.90;;;;;;5077825;28;20068;-77
2022/03/22 00:13:29;;;;;;;46.95;32.50;;;7.70;99.90;;;;;;5078274;28;20097;-77
2022/03/22 00:15:55;;;;;;;50.95;35.05;;;7.70;99.90;;;;;;5061165;28;20108;-78
2022/03/22 00:18:21;;;;;;;47.03;32.97;;;7.70;99.90;;;;;;5077621;28;20037;-77
2022/03/22 00:20:47;;;;;;;57.03;34.83;;;7.70;99.90;;;;;;5060420;28;20051;-77
2022/03/22 00:23:13;;;;;;;47.33;33.80;;;7.70;99.90;;;;;;5077853;28;20040;-77
2022/03/22 00:25:38;;;;;;;47.55;33.72;;;7.60;99.90;;;;;;5059712;28;20051;-77
2022/03/22 00:28:05;;;;;;;50.03;34.05;;;7.60;99.90;;;;;;5077011;28;20370;-78
2022/03/22 00:30:32;;;;;;;49.90;34.08;;;7.60;99.90;;;;;;5077672;28;20032;-77
2022/03/22 00:33:00;;;;;;;49.53;33.97;;;7.60;99.90;;;;;;5077953;28;20044;-77
2022/03/22 00:35:28;;;;;;;53.33;35.38;;;7.60;99.90;;;;;;5077560;28;20072;-78
2022/03/22 00:37:56;;;;;;;52.30;34.85;;;7.50;99.90;;;;;;5059623;28;20048;-78
2022/03/22 00:40:26;;;;;;;49.47;33.83;;;7.50;99.90;;;;;;5057270;28;20041;-77
2022/03/22 00:42:53;;;;;;;55.65;35.33;;;7.50;99.90;;;;;;5040072;28;20041;-77
2022/03/22 00:45:21;;;;;;;51.17;34.88;;;7.50;99.90;;;;;;5057271;28;20063;-78
2022/03/22 00:47:48;;;;;;;52.35;35.30;;;7.60;99.90;;;;;;5057431;28;20052;-76
2022/03/22 00:50:16;;;;;;;49.17;34.53;;;7.50;99.90;;;;;;5076493;28;20052;-77
2022/03/22 00:52:42;;;;;;;52.50;35.08;;;7.50;99.90;;;;;;5059903;28;20044;-78
2022/03/22 00:55:09;;;;;;;52.35;34.13;;;7.60;99.90;;;;;;5059561;28;20056;-78
2022/03/22 00:57:35;;;;;;;49.88;34.50;;;7.50;99.90;;;;;;5059779;28;20434;-78
2022/03/22 01:00:07;;;;;;;51.15;35.75;;;7.50;99.90;;;;;;5076413;28;20512;-77
2022/03/22 01:02:34;;;;;;;48.05;34.53;;;7.50;99.90;;;;;;5076926;28;20036;-77
2022/03/22 01:05:13;;;;;;;50.30;35.25;;;7.50;99.90;;;;;;5059497;28;20037;-78
2022/03/22 01:07:43;;;;;;;50.20;36.33;;;7.50;99.90;;;;;;5059465;28;20060;-77
2022/03/22 01:10:11;;;;;;;50.35;36.00;;;7.50;99.90;;;;;;5059360;28;20044;-77
2022/03/22 01:12:40;;;;;;;53.92;36.33;;;7.40;99.90;;;;;;5077041;28;20036;-77
2022/03/22 01:15:15;;;;;;;53.13;36.45;;;7.40;99.90;;;;;;5076592;28;20040;-78
2022/03/22 01:17:42;;;;;;;57.13;36.60;;;7.40;99.90;;;;;;5076930;28;20059;-76
2022/03/22 01:20:11;;;;;;;51.65;35.63;;;7.40;99.90;;;;;;5076296;28;20468;-76
2022/03/22 01:22:38;;;;;;;49.78;35.42;;;7.40;99.90;;;;;;5076586;28;20044;-77
2022/03/22 01:25:09;;;;;;;46.72;35.13;;;7.40;99.90;;;;;;5076421;28;20128;-77
2022/03/22 01:27:36;;;;;;;52.97;36.92;;;7.40;99.90;;;;;;5076409;28;20045;-77
2022/03/22 01:30:07;;;;;;;53.75;36.88;;;7.40;99.90;;;;;;5075779;28;20051;-78
2022/03/22 01:32:33;;;;;;;52.75;35.72;;;7.30;99.90;;;;;;5076318;28;20133;-76
2022/03/22 01:34:58;;;;;;;53.85;36.60;;;7.40;99.90;;;;;;5076155;28;20083;-77
2022/03/22 01:37:24;;;;;;;56.17;38.47;;;7.30;99.90;;;;;;5076416;28;20055;-78
2022/03/22 01:39:49;;;;;;;49.28;36.35;;;7.40;99.90;;;;;;5058276;28;20041;-76
2022/03/22 01:42:15;;;;;;;54.40;38.47;;;7.30;99.90;;;;;;5076316;28;20048;-78
2022/03/22 01:44:40;;;;;;;51.60;36.58;;;7.30;99.90;;;;;;5076315;28;20457;-77
2022/03/22 01:47:06;;;;;;;54.00;36.95;;;7.30;99.90;;;;;;5076392;28;20105;-77
2022/03/22 01:49:33;;;;;;;51.13;38.47;;;7.30;99.90;;;;;;5075195;28;20362;-78
2022/03/22 01:51:59;;;;;;;58.00;38.15;;;7.20;99.90;;;;;;5075690;28;20450;-76
2022/03/22 01:54:24;;;;;;;52.35;37.00;;;7.30;99.90;;;;;;5076063;28;20458;-78
2022/03/22 01:56:50;;;;;;;55.65;40.15;;;7.20;99.90;;;;;;5042004;28;20051;-78
2022/03/22 01:59:16;;;;;;;59.22;39.42;;;7.30;99.90;;;;;;5041332;28;20110;-77
2022/03/22 02:07:15;;;;;;;51.10;36.70;;;7.30;99.90;;;;;;5075628;28;20113;-77
2022/03/22 02:09:41;;;;;;;54.33;38.13;;;7.30;99.90;;;;;;5057972;28;20442;-78
2022/03/22 02:12:07;;;;;;;58.55;39.38;;;7.30;99.90;;;;;;5075476;28;20039;-77
2022/03/22 02:14:33;;;;;;;59.05;39.70;;;7.30;99.90;;;;;;5075700;28;20036;-76
2022/03/22 02:16:59;;;;;;;57.83;38.95;;;7.30;99.90;;;;;;5075378;28;20434;-78
2022/03/22 02:19:25;;;;;;;53.38;39.08;;;7.30;99.90;;;;;;5075150;28;20106;-77
2022/03/22 02:22:01;;;;;;;55.25;38.95;;;7.30;99.90;;;;;;5058442;28;20044;-77
2022/03/22 02:24:27;;;;;;;56.40;40.50;;;7.30;99.90;;;;;;5074972;28;20044;-78
2022/03/22 02:26:52;;;;;;;63.72;39.65;;;7.30;99.90;;;;;;5057775;28;20055;-77
2022/03/22 02:29:18;;;;;;;55.85;38.13;;;7.30;99.90;;;;;;5075102;28;20048;-77
2022/03/22 02:31:44;;;;;;;54.95;39.45;;;7.30;99.90;;;;;;5041818;28;20052;-77
2022/03/22 02:34:09;;;;;;;55.25;37.90;;;7.30;99.90;;;;;;5075429;28;20443;-77
2022/03/22 02:36:35;;;;;;;60.78;41.03;;;7.30;99.90;;;;;;5075174;28;20043;-77
2022/03/22 02:39:00;;;;;;;58.00;40.17;;;7.30;99.90;;;;;;5075078;28;20042;-78
2022/03/22 02:41:26;;;;;;;61.58;42.17;;;7.30;99.90;;;;;;5074410;28;20488;-76
2022/03/22 02:43:52;;;;;;;56.78;39.92;;;7.30;99.90;;;;;;5075652;28;20425;-77
2022/03/22 02:46:18;;;;;;;62.17;40.95;;;7.30;99.90;;;;;;5075122;28;20083;-77
2022/03/22 02:48:44;;;;;;;63.58;41.95;;;7.20;99.90;;;;;;5057279;28;20072;-76
2022/03/22 02:51:10;;;;;;;54.63;38.92;;;7.30;99.90;;;;;;5075213;28;20040;-76
2022/03/22 02:53:36;;;;;;;59.72;40.95;;;7.30;99.90;;;;;;5074988;28;20075;-78
2022/03/22 02:56:02;;;;;;;58.17;40.83;;;7.30;99.90;;;;;;5057206;28;20067;-76
2022/03/22 02:58:28;;;;;;;59.30;40.33;;;7.30;99.90;;;;;;5057536;28;20052;-76
2022/03/22 03:00:54;;;;;;;52.92;38.45;;;7.30;99.90;;;;;;5056898;28;20110;-77
2022/03/22 03:03:21;;;;;;;64.03;41.03;;;7.30;99.90;;;;;;5075162;28;20123;-78
2022/03/22 03:05:50;;;;;;;58.90;39.35;;;7.30;99.90;;;;;;5074957;28;20040;-78
2022/03/22 03:08:17;;;;;;;56.13;40.05;;;7.30;99.90;;;;;;5074901;28;20067;-76
2022/03/22 03:10:43;;;;;;;55.85;39.45;;;7.30;99.90;;;;;;5074020;28;20361;-76
2022/03/22 03:13:09;;;;;;;55.20;38.78;;;7.30;99.90;;;;;;5074512;28;20435;-77
2022/03/22 03:15:34;;;;;;;53.38;37.40;;;7.30;99.90;;;;;;5075074;28;20047;-77
2022/03/22 03:18:00;;;;;;;51.67;38.22;;;7.30;99.90;;;;;;5074810;28;20114;-77
2022/03/22 03:20:26;;;;;;;60.33;39.88;;;7.30;99.90;;;;;;5056788;28;20117;-76
2022/03/22 03:22:52;;;;;;;57.33;39.90;;;7.40;99.90;;;;;;5074802;28;20040;-77
2022/03/22 03:25:18;;;;;;;54.50;38.58;;;7.40;99.90;;;;;;5042403;28;20062;-78
2022/03/22 03:27:44;;;;;;;57.20;40.03;;;7.40;99.90;;;;;;5034655;28;20041;-77
2022/03/22 03:30:10;;;;;;;56.22;39.42;;;7.40;99.90;;;;;;5034081;28;20393;-76
2022/03/22 03:32:36;;;;;;;59.80;40.83;;;7.40;99.90;;;;;;5034585;28;20041;-77
2022/03/22 03:35:02;;;;;;;61.03;40.35;;;7.40;99.90;;;;;;5034498;28;20064;-76
2022/03/22 03:37:30;;;;;;;55.33;37.97;;;7.40;99.90;;;;;;5034654;28;20033;-77
2022/03/22 03:39:56;;;;;;;53.58;38.80;;;7.40;99.90;;;;;;5034344;28;20056;-78
2022/03/22 03:42:21;;;;;;;55.83;38.97;;;7.30;99.90;;;;;;5034855;28;20037;-78
2022/03/22 03:47:31;;;;;;;57.70;38.10;;;7.20;99.90;;;;;;5033952;28;20056;-76
2022/03/22 03:50:04;;;;;;;56.55;37.72;;;7.10;99.90;;;;;;5034072;28;20045;-78
2022/03/22 03:52:34;;;;;;;56.33;39.03;;;7.10;99.90;;;;;;5034504;28;20049;-78
2022/03/22 03:55:02;;;;;;;51.15;37.67;;;7.00;99.90;;;;;;5034333;28;20495;-77
2022/03/22 03:57:28;;;;;;;58.33;38.78;;;7.00;99.90;;;;;;5034645;28;20095;-78
2022/03/22 03:59:56;;;;;;;49.45;36.20;;;6.90;99.90;;;;;;5033289;28;20392;-77
2022/03/22 04:02:23;;;;;;;53.63;38.55;;;6.90;99.90;;;;;;5034805;28;20037;-78
2022/03/22 04:04:52;;;;;;;52.17;35.97;;;6.90;99.90;;;;;;5034099;28;20092;-78
2022/03/22 04:07:25;;;;;;;51.20;36.70;;;6.80;99.90;;;;;;5034105;28;20382;-77
2022/03/22 04:09:51;;;;;;;51.15;35.90;;;6.70;99.90;;;;;;5033998;28;20075;-78
2022/03/22 04:12:17;;;;;;;49.22;36.00;;;6.70;99.90;;;;;;5035131;28;20037;-77
2022/03/22 04:14:42;;;;;;;52.88;37.28;;;6.70;99.90;;;;;;5020466;28;20045;-77
2022/03/22 04:17:08;;;;;;;53.60;37.03;;;6.60;99.90;;;;;;5037931;28;20052;-77
2022/03/22 04:19:37;;;;;;;51.92;36.20;;;6.60;99.90;;;;;;5036557;28;20060;-77
2022/03/22 04:22:04;;;;;;;50.95;35.10;;;6.60;99.90;;;;;;5036839;28;20124;-77
2022/03/22 04:24:30;;;;;;;54.67;36.10;;;6.60;99.90;;;;;;5041600;28;20048;-77
2022/03/22 04:32:41;;;;;;;52.17;38.08;;;6.50;99.90;;;;;;5057412;28;20051;-76
2022/03/22 04:32:44;;;;;;;51.57;34.53;;;6.40;99.90;;;;;;5055133;28;20076;-78
2022/03/22 04:35:18;;;;;;;53.50;35.67;;;6.40;99.90;;;;;;5057459;28;20036;-78
2022/03/22 04:37:45;;;;;;;49.88;35.08;;;6.40;99.90;;;;;;5057715;28;20069;-76
2022/03/22 04:40:14;;;;;;;56.67;37.05;;;6.40;99.90;;;;;;5057489;28;20041;-78
2022/03/22 04:42:40;;;;;;;51.78;35.97;;;6.40;99.90;;;;;;5057588;28;20374;-78
2022/03/22 04:45:07;;;;;;;50.60;35.35;;;6.40;99.90;;;;;;5056416;28;20082;-78
2022/03/22 04:47:34;;;;;;;55.45;39.38;;;6.40;99.90;;;;;;5057908;28;20106;-78
2022/03/22 04:49:59;;;;;;;51.42;35.63;;;6.40;99.90;;;;;;5057461;28;20041;-76
2022/03/22 04:57:55;;;;;;;53.60;37.72;;;6.50;99.90;;;;;;5037296;28;20057;-76
2022/03/22 05:00:21;;;;;;;57.45;39.72;;;6.50;99.90;;;;;;5037354;28;20037;-76
2022/03/22 05:02:47;;;;;;;53.72;37.55;;;6.50;99.90;;;;;;5057088;28;20394;-77
2022/03/22 05:05:15;;;;;;;55.45;37.40;;;6.30;99.90;;;;;;5056221;28;20049;-78
2022/03/22 05:07:41;;;;;;;59.13;40.67;;;6.20;99.90;;;;;;5056250;28;20044;-77
2022/03/22 05:10:08;;;;;;;55.22;39.13;;;6.20;99.90;;;;;;5057183;28;20052;-77
2022/03/22 05:12:37;;;;;;;55.78;36.95;;;6.10;99.90;;;;;;5037654;28;20056;-77
2022/03/22 05:15:03;;;;;;;49.00;35.30;;;6.00;99.90;;;;;;5036850;28;20045;-77
2022/03/22 05:17:29;;;;;;;53.20;36.08;;;6.00;99.90;;;;;;5037120;28;20053;-77
2022/03/22 05:19:54;;;;;;;58.03;37.50;;;5.90;99.90;;;;;;5036655;28;20037;-77
2022/03/22 05:22:20;;;;;;;53.70;38.50;;;5.80;99.90;;;;;;5052782;28;20041;-77
2022/03/22 05:24:46;;;;;;;57.92;38.65;;;5.60;99.90;;;;;;5063345;28;20097;-79
2022/03/22 05:27:15;;;;;;;52.38;36.97;;;5.50;99.90;;;;;;5076845;28;20371;-78
2022/03/22 05:29:41;;;;;;;53.22;37.70;;;5.50;99.90;;;;;;5076808;28;20044;-76
2022/03/22 05:32:07;;;;;;;52.22;37.97;;;5.50;99.90;;;;;;5076253;28;20040;-77
2022/03/22 05:34:33;;;;;;;54.58;38.80;;;5.40;99.90;;;;;;5076247;28;20055;-76
2022/03/22 05:36:59;;;;;;;57.05;39.13;;;5.40;99.90;;;;;;5058678;28;20041;-77
2022/03/22 05:39:24;;;;;;;60.05;39.47;;;5.40;99.90;;;;;;5075861;28;20470;-77
2022/03/22 05:41:51;;;;;;;63.13;41.88;;;5.30;99.90;;;;;;5075838;28;20068;-76
2022/03/22 05:44:17;;;;;;;55.47;37.15;;;5.40;99.90;;;;;;5076292;28;20365;-78
2022/03/22 05:46:42;;;;;;;58.00;39.50;;;5.40;99.90;;;;;;5076287;28;20051;-77
2022/03/22 05:49:13;;;;;;;56.72;40.05;;;5.20;99.90;;;;;;5075784;28;20086;-76
2022/03/22 05:51:39;;;;;;;64.53;40.15;;;5.30;99.90;;;;;;5075591;28;20052;-78
2022/03/22 05:54:05;;;;;;;59.85;40.80;;;5.30;99.90;;;;;;5075920;28;20335;-78
2022/03/22 05:56:30;;;;;;;61.33;43.10;;;5.20;99.90;;;;;;5058304;28;20032;-78
2022/03/22 05:58:58;;;;;;;61.90;42.25;;;5.30;99.90;;;;;;5075506;28;20040;-77
2022/03/22 06:01:24;;;;;;;59.90;43.92;;;5.30;99.90;;;;;;5057796;28;20455;-77
2022/03/22 06:03:50;;;;;;;64.03;44.33;;;5.20;99.90;;;;;;5075224;28;20119;-78
2022/03/22 06:06:16;;;;;;;62.30;43.67;;;5.30;99.90;;;;;;5058430;28;20342;-77
2022/03/22 06:08:42;;;;;;;61.70;44.42;;;5.30;99.90;;;;;;5058177;28;20051;-77
2022/03/22 06:11:08;;;;;;;62.53;44.47;;;5.30;99.90;;;;;;5058950;28;20437;-78
2022/03/22 06:13:33;;;;;;;63.78;44.40;;;5.30;99.90;;;;;;5058088;28;20107;-78
2022/03/22 06:15:59;;;;;;;62.10;44.20;;;5.40;99.90;;;;;;5075652;28;20040;-78
2022/03/22 06:18:24;;;;;;;63.78;43.38;;;5.30;99.90;;;;;;5074978;28;20094;-77
2022/03/22 06:20:50;;;;;;;68.82;44.50;;;5.40;99.90;;;;;;5075598;28;20119;-77
2022/03/22 06:23:17;;;;;;;65.07;45.45;;;5.40;99.90;;;;;;5075132;28;20127;-75
2022/03/22 06:25:42;;;;;;;62.78;43.85;;;5.40;99.90;;;;;;5075491;28;20057;-75
2022/03/22 06:28:09;;;;;;;67.97;46.70;;;5.40;99.90;;;;;;5075299;28;20048;-76
2022/03/22 06:30:36;;;;;;;63.63;44.75;;;5.40;99.90;;;;;;5058073;28;20055;-77
2022/03/22 06:33:10;;;;;;;61.25;44.78;;;5.50;99.90;;;;;;5074651;28;20068;-75
2022/03/22 06:35:36;;;;;;;63.53;46.00;;;5.50;99.90;;;;;;5057314;28;20128;-75
2022/03/22 06:38:03;;;;;;;66.05;45.90;;;5.60;99.90;;;;;;5075555;28;20147;-76
2022/03/22 06:40:32;;;;;;;68.40;49.05;;;5.70;99.90;;;;;;5075331;28;20037;-75
2022/03/22 06:42:58;;;;;;;62.50;44.97;;;5.80;99.90;;;;;;5074971;28;20037;-78
2022/03/22 06:45:24;;;;;;;67.28;46.85;;;5.80;99.90;;;;;;5074615;28;20394;-77
2022/03/22 06:47:51;;;;;;;67.80;46.60;;;5.90;99.90;;;;;;5074647;28;20045;-77
2022/03/22 06:50:18;;;;;;;67.85;47.78;;;6.00;99.90;;;;;;5074883;28;20036;-78
2022/03/22 06:52:44;;;;;;;67.22;47.22;;;6.10;99.90;;;;;;5056896;28;20041;-78
2022/03/22 06:55:12;;;;;;;67.30;47.13;;;6.20;99.90;;;;;;5057453;28;20105;-78
2022/03/22 06:57:38;;;;;;;67.28;46.15;;;6.40;99.90;;;;;;5056903;28;20514;-77
2022/03/22 07:00:08;;;;;;;62.88;45.58;;;6.50;99.90;;;;;;5074607;28;20040;-78
2022/03/22 07:02:35;;;;;;;68.05;48.83;;;6.60;99.90;;;;;;5075046;28;20040;-78
2022/03/22 07:05:01;;;;;;;69.90;48.72;;;6.80;99.90;;;;;;5074831;28;20091;-78
2022/03/22 07:07:27;;;;;;;68.57;50.17;;;6.90;99.90;;;;;;5074628;28;20047;-79
2022/03/22 07:09:53;;;;;;;67.95;48.78;;;7.00;99.90;;;;;;5074599;28;20040;-77
2022/03/22 07:12:18;;;;;;;64.53;46.67;;;7.10;99.90;;;;;;5074252;28;20032;-77
2022/03/22 07:14:44;;;;;;;65.25;48.33;;;7.20;99.90;;;;;;5074547;28;20072;-78
2022/03/22 07:17:10;;;;;;;70.72;48.05;;;7.30;99.90;;;;;;5074850;28;20040;-77
2022/03/22 07:19:36;;;;;;;65.15;47.08;;;7.40;99.90;;;;;;5074147;28;20062;-78
2022/03/22 07:22:03;;;;;;;64.55;47.28;;;7.50;99.90;;;;;;5056606;28;20056;-78
2022/03/22 07:24:29;;;;;;;66.75;46.03;;;7.60;99.90;;;;;;5074296;28;20045;-78
2022/03/22 07:26:54;;;;;;;61.20;45.88;;;7.60;99.90;;;;;;5074777;28;20318;-78
2022/03/22 07:29:20;;;;;;;62.65;47.17;;;7.70;99.90;;;;;;5074349;28;20509;-78
2022/03/22 07:31:46;;;;;;;63.17;46.50;;;7.80;99.90;;;;;;5074907;28;20109;-78
2022/03/22 07:34:17;;;;;;;63.08;45.53;;;7.90;99.90;;;;;;5074856;28;20048;-78
2022/03/22 07:36:45;;;;;;;61.67;45.42;;;7.90;99.90;;;;;;5057393;28;20037;-77
2022/03/22 07:39:11;;;;;;;62.40;46.35;;;8.00;99.90;;;;;;5074158;28;20036;-79
2022/03/22 07:41:38;;;;;;;60.22;44.88;;;8.00;99.90;;;;;;5074600;28;20490;-77
2022/03/22 07:44:06;;;;;;;62.65;47.08;;;8.10;99.90;;;;;;5074187;28;20048;-77
2022/03/22 07:46:32;;;;;;;61.63;45.55;;;8.20;99.90;;;;;;5039959;28;20048;-78
2022/03/22 07:52:57;;;;;;;63.13;45.90;;;8.20;99.90;;;;;;5077619;28;20469;-78
2022/03/22 07:54:28;;;;;;;62.03;45.35;;;8.30;99.90;;;;;;5060717;28;20048;-77
2022/03/22 07:56:54;;;;;;;61.25;44.70;;;8.40;99.90;;;;;;5077878;28;20055;-78
2022/03/22 07:59:20;;;;;;;60.95;45.22;;;8.50;99.90;;;;;;5077932;28;20044;-78
2022/03/22 08:01:46;;;;;;;62.33;45.58;;;8.60;99.90;;;;;;5078322;28;20105;-78
2022/03/22 08:04:12;;;;;;;62.60;44.85;;;8.60;99.90;;;;;;5077963;28;20059;-78
2022/03/22 08:06:37;;;;;;;63.30;43.22;;;8.60;99.90;;;;;;5077717;28;20045;-78
2022/03/22 08:09:03;;;;;;;64.22;46.88;;;8.70;99.90;;;;;;5077479;28;20330;-77
2022/03/22 08:11:29;;;;;;;60.92;45.50;;;8.80;99.90;;;;;;5060503;28;20120;-78
2022/03/22 08:13:59;;;;;;;60.47;44.45;;;8.80;99.90;;;;;;5077930;28;20044;-78
2022/03/22 08:16:25;;;;;;;62.67;44.63;;;8.90;99.90;;;;;;5077903;28;20409;-77
2022/03/22 08:18:51;;;;;;;62.58;45.40;;;9.00;99.90;;;;;;5077799;28;20068;-77
2022/03/22 08:21:16;;;;;;;62.40;45.63;;;9.10;99.90;;;;;;5059832;28;20090;-78
2022/03/22 08:23:42;;;;;;;64.63;45.40;;;9.10;99.90;;;;;;5061146;28;20362;-78
2022/03/22 08:26:07;;;;;;;60.03;43.40;;;9.20;99.90;;;;;;5078225;28;20048;-78
2022/03/22 08:28:33;;;;;;;63.30;44.40;;;9.30;99.90;;;;;;5077603;28;20056;-78
2022/03/22 08:30:58;;;;;;;66.90;44.65;;;9.40;99.90;;;;;;5077700;28;20040;-78
2022/03/22 08:33:24;;;;;;;59.65;43.13;;;9.50;99.90;;;;;;5077390;28;20040;-78
2022/03/22 08:35:52;;;;;;;61.97;43.28;;;9.60;99.90;;;;;;5077486;28;20044;-77
2022/03/22 08:38:19;;;;;;;62.50;44.03;;;9.70;99.90;;;;;;5077215;28;20047;-77
2022/03/22 08:40:45;;;;;;;60.10;42.47;;;9.70;99.90;;;;;;5060693;28;20063;-78
2022/03/22 08:43:11;;;;;;;57.15;41.58;;;9.80;99.90;;;;;;5074275;28;20036;-78
2022/03/22 08:45:37;;;;;;;59.67;42.90;;;9.90;99.90;;;;;;5077318;28;20033;-78
2022/03/22 08:48:09;;;;;;;62.95;44.45;;;10.00;99.90;;;;;;5077100;28;20051;-79
2022/03/22 08:50:35;;;;;;;57.20;43.15;;;10.10;99.90;;;;;;5077669;28;20045;-78
2022/03/22 08:53:02;;;;;;;56.80;41.67;;;10.20;99.90;;;;;;5077210;28;20048;-78
2022/03/22 08:55:29;;;;;;;59.63;42.13;;;10.20;99.90;;;;;;5077166;28;20119;-78
2022/03/22 08:57:55;;;;;;;58.05;43.20;;;10.30;99.90;;;;;;5076311;28;20400;-79
2022/03/22 09:00:21;;;;;;;60.88;44.25;;;10.30;99.90;;;;;;5077191;28;20040;-79
2022/03/22 09:02:49;;;;;;;64.95;44.00;;;10.40;99.90;;;;;;5058862;28;20072;-77
2022/03/22 09:08:01;;;;;;;64.70;42.95;;;10.50;99.90;;;;;;5076618;28;20044;-78
2022/03/22 09:10:28;;;;;;;60.15;42.40;;;10.50;99.90;;;;;;5076823;28;20450;-77
2022/03/22 09:12:55;;;;;;;62.97;45.05;;;10.60;99.90;;;;;;5076903;28;20044;-78
2022/03/22 09:15:22;;;;;;;58.78;42.53;;;10.70;99.90;;;;;;5076718;28;20106;-78
2022/03/22 09:17:49;;;;;;;59.58;42.60;;;10.70;99.90;;;;;;5059500;28;20458;-77
2022/03/22 09:20:15;;;;;;;60.42;42.40;;;10.80;99.90;;;;;;5076975;28;20132;-78
2022/03/22 09:22:43;;;;;;;57.00;41.17;;;10.90;99.90;;;;;;5076911;28;20048;-77
2022/03/22 09:25:09;;;;;;;55.83;42.30;;;10.90;99.90;;;;;;5076785;28;20082;-77
2022/03/22 09:27:35;;;;;;;55.97;41.63;;;11.00;99.90;;;;;;5076434;28;20044;-77
2022/03/22 09:30:02;;;;;;;61.05;43.85;;;11.00;99.90;;;;;;5076371;28;20044;-77
2022/03/22 09:32:27;;;;;;;61.30;45.13;;;11.10;99.90;;;;;;5076966;28;20332;-78
2022/03/22 09:34:53;;;;;;;66.05;43.80;;;11.10;99.90;;;;;;5076591;28;20142;-77
2022/03/22 09:37:19;;;;;;;56.30;42.28;;;11.20;99.90;;;;;;5076294;28;20442;-77
2022/03/22 09:39:45;;;;;;;60.45;44.88;;;11.30;99.90;;;;;;5056785;28;20098;-77
2022/03/22 09:42:11;;;;;;;60.70;43.72;;;11.40;99.90;;;;;;5053399;28;20048;-77
2022/03/22 09:44:37;;;;;;;65.00;44.10;;;11.40;99.90;;;;;;5076040;28;20438;-78
2022/03/22 09:47:04;;;;;;;61.53;45.25;;;11.50;99.90;;;;;;5076130;28;20107;-78
2022/03/22 09:49:30;;;;;;;59.80;43.03;;;11.60;99.90;;;;;;5075755;28;20055;-78
2022/03/22 09:51:57;;;;;;;61.60;44.70;;;11.70;99.90;;;;;;5076425;28;20372;-77
2022/03/22 09:54:23;;;;;;;57.63;43.85;;;11.70;99.90;;;;;;5058551;28;20094;-78
2022/03/22 09:56:50;;;;;;;54.53;41.67;;;11.80;99.90;;;;;;5076322;28;20104;-78
2022/03/22 09:59:15;;;;;;;59.75;44.42;;;11.80;99.90;;;;;;5075547;28;20082;-78
2022/03/22 10:01:42;;;;;;;59.22;45.13;;;11.90;99.90;;;;;;5076424;28;20044;-77
2022/03/22 10:04:13;;;;;;;58.72;43.78;;;11.90;99.90;;;;;;5076324;28;20040;-77
2022/03/22 10:07:02;;;;;;;55.53;42.25;;;11.90;99.90;;;;;;5058383;28;20063;-78
2022/03/22 10:09:33;;;;;;;59.25;41.40;;;12.00;99.90;;;;;;5074633;28;20072;-78
2022/03/22 10:11:59;;;;;;;60.60;41.47;;;12.10;99.90;;;;;;5075444;28;20090;-78
2022/03/22 10:14:39;;;;;;;59.50;43.70;;;12.20;99.90;;;;;;5075847;28;20056;-77
2022/03/22 10:17:19;;;;;;;56.05;42.05;;;12.20;99.90;;;;;;5075454;28;20037;-78
2022/03/22 10:19:50;;;;;;;55.95;41.50;;;12.30;99.90;;;;;;5058373;28;20098;-78
2022/03/22 10:22:26;;;;;;;56.83;43.10;;;12.40;99.90;;;;;;5075450;28;20049;-79
2022/03/22 10:24:55;;;;;;;56.17;40.30;;;12.40;99.90;;;;;;5075086;28;20125;-78
2022/03/22 10:27:31;;;;;;;55.00;41.42;;;12.40;99.90;;;;;;5075679;28;20052;-77
2022/03/22 10:29:59;;;;;;;55.67;41.60;;;12.50;99.90;;;;;;5075574;28;20058;-78
2022/03/22 10:32:44;;;;;;;56.72;42.58;;;12.60;99.90;;;;;;5075545;28;20047;-78
2022/03/22 10:35:16;;;;;;;57.25;41.80;;;12.70;99.90;;;;;;5075154;28;20041;-78
2022/03/22 10:37:53;;;;;;;55.05;40.33;;;12.80;99.90;;;;;;5058011;28;20050;-78
2022/03/22 10:40:34;;;;;;;54.95;40.17;;;12.90;99.90;;;;;;5075247;28;20036;-77
2022/03/22 10:43:04;;;;;;;50.10;37.85;;;13.10;99.90;;;;;;5074945;28;20036;-77
2022/03/22 10:45:48;;;;;;;52.45;39.10;;;13.20;99.90;;;;;;5057377;28;20051;-77
2022/03/22 10:48:19;;;;;;;51.47;38.07;;;13.40;99.90;;;;;;5075129;28;20068;-77
2022/03/22 10:50:47;;;;;;;48.42;38.97;;;13.60;99.90;;;;;;5075686;28;20431;-77
2022/03/22 10:53:21;;;;;;;52.88;37.28;;;13.70;99.90;;;;;;5057631;28;20054;-77
2022/03/22 10:55:47;;;;;;;54.03;37.72;;;13.90;99.90;;;;;;5074982;28;20354;-77
2022/03/22 10:58:15;;;;;;;49.25;36.25;;;14.00;99.90;;;;;;5075218;28;20119;-77
2022/03/22 11:00:43;;;;;;;47.20;36.33;;;14.10;99.90;;;;;;5074779;28;20048;-77
2022/03/22 11:03:10;;;;;;;49.13;37.85;;;14.30;99.90;;;;;;5075106;28;20313;-77
2022/03/22 11:05:36;;;;;;;48.33;36.38;;;14.50;99.90;;;;;;5073980;28;20068;-79
2022/03/22 11:08:02;;;;;;;50.25;36.35;;;14.60;99.90;;;;;;5074806;28;20051;-77
2022/03/22 11:10:31;;;;;;;47.67;36.00;;;14.60;99.90;;;;;;5074683;28;20452;-79
2022/03/22 11:12:58;;;;;;;51.40;37.40;;;14.60;99.90;;;;;;5074984;28;20445;-77
2022/03/22 11:15:25;;;;;;;53.30;35.45;;;14.60;99.90;;;;;;5074330;28;20040;-78
2022/03/22 11:17:52;;;;;;;44.67;34.35;;;14.70;99.90;;;;;;5074729;28;20059;-78
2022/03/22 11:20:18;;;;;;;47.90;35.78;;;14.70;99.90;;;;;;5057553;28;20178;-78
2022/03/22 11:22:52;;;;;;;54.35;37.72;;;14.70;99.90;;;;;;5077554;28;20131;-79
2022/03/22 11:25:36;;;;;;;46.95;35.78;;;14.70;99.90;;;;;;5078077;28;20044;-78
2022/03/22 11:28:07;;;;;;;50.23;35.20;;;14.80;99.90;;;;;;5078935;28;20433;-78
2022/03/22 11:30:35;;;;;;;46.53;35.25;;;14.90;99.90;;;;;;5061199;28;20294;-77
2022/03/22 11:35:57;;;;;;;43.50;33.53;;;15.10;99.90;;;;;;5078221;28;20349;-78
2022/03/22 11:38:56;;;;;;;43.40;31.35;;;15.20;99.90;;;;;;5078618;28;20036;-77
2022/03/22 11:44:21;;;;;;;45.65;31.85;;;15.30;99.90;;;;;;5064032;28;20362;-78
2022/03/22 11:47:00;;;;;;;50.50;34.60;;;15.30;99.90;;;;;;5060554;28;20128;-78
2022/03/22 11:49:26;;;;;;;41.90;31.73;;;15.30;99.90;;;;;;5078484;28;20032;-78
2022/03/22 11:52:11;;;;;;;43.83;32.28;;;15.30;99.90;;;;;;5060809;28;20044;-77
2022/03/22 11:54:37;;;;;;;48.35;32.40;;;15.40;99.90;;;;;;5078216;28;20032;-78
2022/03/22 11:57:04;;;;;;;44.17;32.17;;;15.40;99.90;;;;;;5078294;28;20106;-77
2022/03/22 11:59:41;;;;;;;40.13;29.90;;;15.50;99.90;;;;;;5077706;28;20098;-77
2022/03/22 12:02:15;;;;;;;44.05;30.83;;;16.00;99.90;;;;;;5078566;28;20393;-78
2022/03/22 12:04:43;;;;;;;42.70;30.70;;;16.10;99.90;;;;;;5060370;28;20447;-78
2022/03/22 12:07:12;;;;;;;40.78;28.38;;;16.30;99.90;;;;;;5078384;28;20041;-79
2022/03/22 12:09:39;;;;;;;38.78;27.83;;;16.30;99.90;;;;;;5078031;28;20041;-78
2022/03/22 12:12:06;;;;;;;38.63;29.23;;;16.30;99.90;;;;;;5078168;28;20127;-77
2022/03/22 12:14:34;;;;;;;37.38;28.75;;;16.30;99.90;;;;;;5074288;28;20071;-78
2022/03/22 12:17:01;;;;;;;38.78;28.95;;;16.40;99.90;;;;;;5077598;28;20048;-78
2022/03/22 12:19:30;;;;;;;35.83;26.20;;;16.50;99.90;;;;;;5077632;28;20123;-79
2022/03/22 12:21:56;;;;;;;38.30;26.98;;;16.60;99.90;;;;;;5077941;28;20342;-78
2022/03/22 12:24:23;;;;;;;39.72;28.02;;;16.80;99.90;;;;;;5076921;28;20059;-78
2022/03/22 12:26:49;;;;;;;35.63;26.95;;;16.70;99.90;;;;;;5059682;28;20036;-78
2022/03/22 12:29:15;;;;;;;38.45;27.80;;;16.70;99.90;;;;;;5077576;28;20055;-78
2022/03/22 12:31:52;;;;;;;37.58;26.67;;;16.80;99.90;;;;;;5059987;28;20048;-78
2022/03/22 12:34:18;;;;;;;33.50;24.95;;;16.70;99.90;;;;;;5076061;28;20462;-78
2022/03/22 12:36:44;;;;;;;34.65;25.45;;;17.00;99.90;;;;;;5077481;28;20136;-78
2022/03/22 12:39:11;;;;;;;33.53;26.23;;;17.30;99.90;;;;;;5074210;28;20036;-77
2022/03/22 12:41:37;;;;;;;32.05;25.13;;;17.30;99.90;;;;;;5077449;28;20055;-77
2022/03/22 12:44:04;;;;;;;31.85;24.40;;;17.30;99.90;;;;;;5077252;28;20163;-78
2022/03/22 12:46:30;;;;;;;34.35;25.05;;;17.20;99.90;;;;;;5077628;28;20181;-78
2022/03/22 12:48:56;;;;;;;33.95;25.10;;;17.30;99.90;;;;;;5077195;28;20067;-78
2022/03/22 12:51:25;;;;;;;33.47;25.70;;;17.60;99.90;;;;;;5077411;28;20472;-78
2022/03/22 12:53:52;;;;;;;37.22;26.35;;;17.80;99.90;;;;;;5076715;28;20036;-79
2022/03/22 12:56:20;;;;;;;30.63;25.23;;;17.90;99.90;;;;;;5077463;28;20189;-78
2022/03/22 12:58:46;;;;;;;32.80;25.73;;;18.00;99.90;;;;;;5077441;28;20373;-78
2022/03/22 13:01:12;;;;;;;35.58;26.38;;;18.00;99.90;;;;;;5077136;28;20044;-78
2022/03/22 13:03:38;;;;;;;36.55;27.42;;;17.90;99.90;;;;;;5059517;28;20062;-79